METAR Data
IDs: Format: Raw Decoded Include TAF

Data at: 1253 UTC 26 Feb 2021

KSTC 261153Z AUTO 18011KT 10SM FEW075 M02/M06 A2984 RMK AO2 SLP125 T10221056 11017 21028 56032